sensor_id;sensor_type;location;lat;lon;timestamp;temperature;humidity
20911;DHT22;10615;42.702;23.314;2022-08-03T00:00:12;20.90;71.50
20911;DHT22;10615;42.702;23.314;2022-08-03T00:01:17;20.80;71.60
20911;DHT22;10615;42.702;23.314;2022-08-03T00:02:18;20.80;71.40
20911;DHT22;10615;42.702;23.314;2022-08-03T00:03:19;20.90;71.30
20911;DHT22;10615;42.702;23.314;2022-08-03T00:04:19;20.80;71.20
20911;DHT22;10615;42.702;23.314;2022-08-03T00:05:20;20.90;71.30
20911;DHT22;10615;42.702;23.314;2022-08-03T00:06:21;20.80;71.10
20911;DHT22;10615;42.702;23.314;2022-08-03T00:07:22;20.80;70.80
20911;DHT22;10615;42.702;23.314;2022-08-03T00:08:22;20.80;70.80
20911;DHT22;10615;42.702;23.314;2022-08-03T00:09:23;20.80;70.80
20911;DHT22;10615;42.702;23.314;2022-08-03T00:10:24;20.80;71.40
20911;DHT22;10615;42.702;23.314;2022-08-03T00:11:26;20.80;71.70
20911;DHT22;10615;42.702;23.314;2022-08-03T00:12:26;20.80;72.00
20911;DHT22;10615;42.702;23.314;2022-08-03T00:13:27;20.80;71.70
20911;DHT22;10615;42.702;23.314;2022-08-03T00:14:28;20.80;71.60
20911;DHT22;10615;42.702;23.314;2022-08-03T00:15:29;20.80;71.60
20911;DHT22;10615;42.702;23.314;2022-08-03T00:16:29;20.80;71.50
20911;DHT22;10615;42.702;23.314;2022-08-03T00:17:30;20.70;71.20
20911;DHT22;10615;42.702;23.314;2022-08-03T00:18:31;20.60;71.10
20911;DHT22;10615;42.702;23.314;2022-08-03T00:19:31;20.60;71.20
20911;DHT22;10615;42.702;23.314;2022-08-03T00:20:32;20.50;71.30
20911;DHT22;10615;42.702;23.314;2022-08-03T00:21:33;20.50;71.40
20911;DHT22;10615;42.702;23.314;2022-08-03T00:22:34;20.50;71.70
20911;DHT22;10615;42.702;23.314;2022-08-03T00:23:35;20.60;72.00
20911;DHT22;10615;42.702;23.314;2022-08-03T00:24:36;20.60;72.00
20911;DHT22;10615;42.702;23.314;2022-08-03T00:25:36;20.60;72.00
20911;DHT22;10615;42.702;23.314;2022-08-03T00:26:37;20.60;72.30
20911;DHT22;10615;42.702;23.314;2022-08-03T00:27:38;20.60;72.10
20911;DHT22;10615;42.702;23.314;2022-08-03T00:28:38;20.60;71.90
20911;DHT22;10615;42.702;23.314;2022-08-03T00:29:39;20.50;71.70
20911;DHT22;10615;42.702;23.314;2022-08-03T00:30:40;20.50;71.70
20911;DHT22;10615;42.702;23.314;2022-08-03T00:31:40;20.40;71.70
20911;DHT22;10615;42.702;23.314;2022-08-03T00:32:41;20.50;71.90
20911;DHT22;10615;42.702;23.314;2022-08-03T00:33:42;20.40;72.20
20911;DHT22;10615;42.702;23.314;2022-08-03T00:34:42;20.50;72.40
20911;DHT22;10615;42.702;23.314;2022-08-03T00:35:43;20.50;72.60
20911;DHT22;10615;42.702;23.314;2022-08-03T00:36:44;20.50;72.50
20911;DHT22;10615;42.702;23.314;2022-08-03T00:37:44;20.50;72.40
20911;DHT22;10615;42.702;23.314;2022-08-03T00:38:45;20.50;72.40
20911;DHT22;10615;42.702;23.314;2022-08-03T00:39:46;20.50;72.50
20911;DHT22;10615;42.702;23.314;2022-08-03T00:40:47;20.50;72.70
20911;DHT22;10615;42.702;23.314;2022-08-03T00:41:47;20.40;72.70
20911;DHT22;10615;42.702;23.314;2022-08-03T00:42:53;20.40;73.00
20911;DHT22;10615;42.702;23.314;2022-08-03T00:43:54;20.40;73.00
20911;DHT22;10615;42.702;23.314;2022-08-03T00:44:55;20.40;73.00
20911;DHT22;10615;42.702;23.314;2022-08-03T00:45:55;20.40;72.90
20911;DHT22;10615;42.702;23.314;2022-08-03T00:46:56;20.50;72.90
20911;DHT22;10615;42.702;23.314;2022-08-03T00:47:58;20.50;72.90
20911;DHT22;10615;42.702;23.314;2022-08-03T00:48:59;20.40;72.70
20911;DHT22;10615;42.702;23.314;2022-08-03T00:49:59;20.40;72.70
20911;DHT22;10615;42.702;23.314;2022-08-03T00:51:00;20.50;72.80
20911;DHT22;10615;42.702;23.314;2022-08-03T00:52:01;20.40;72.70
20911;DHT22;10615;42.702;23.314;2022-08-03T00:53:04;20.40;72.70
20911;DHT22;10615;42.702;23.314;2022-08-03T00:54:05;20.40;72.80
20911;DHT22;10615;42.702;23.314;2022-08-03T00:55:05;20.40;73.10
20911;DHT22;10615;42.702;23.314;2022-08-03T00:56:06;20.40;73.60
20911;DHT22;10615;42.702;23.314;2022-08-03T00:57:07;20.40;73.50
20911;DHT22;10615;42.702;23.314;2022-08-03T00:58:08;20.30;73.40
20911;DHT22;10615;42.702;23.314;2022-08-03T00:59:10;20.30;73.40
20911;DHT22;10615;42.702;23.314;2022-08-03T01:00:14;20.30;73.40
20911;DHT22;10615;42.702;23.314;2022-08-03T01:01:15;20.30;73.50
20911;DHT22;10615;42.702;23.314;2022-08-03T01:02:15;20.30;73.50
20911;DHT22;10615;42.702;23.314;2022-08-03T01:03:16;20.30;73.60
20911;DHT22;10615;42.702;23.314;2022-08-03T01:04:17;20.30;73.60
20911;DHT22;10615;42.702;23.314;2022-08-03T01:05:18;20.20;73.50
20911;DHT22;10615;42.702;23.314;2022-08-03T01:06:29;20.20;73.60
20911;DHT22;10615;42.702;23.314;2022-08-03T01:12:56;20.10;74.00
20911;DHT22;10615;42.702;23.314;2022-08-03T01:14:26;20.10;74.30
20911;DHT22;10615;42.702;23.314;2022-08-03T01:15:49;20.10;74.60
20911;DHT22;10615;42.702;23.314;2022-08-03T01:18:24;20.10;74.70
20911;DHT22;10615;42.702;23.314;2022-08-03T01:20:49;20.00;74.50
20911;DHT22;10615;42.702;23.314;2022-08-03T01:26:34;19.90;74.70
20911;DHT22;10615;42.702;23.314;2022-08-03T01:28:56;19.90;75.00
20911;DHT22;10615;42.702;23.314;2022-08-03T01:30:12;19.80;75.00
20911;DHT22;10615;42.702;23.314;2022-08-03T01:31:16;19.80;75.10
20911;DHT22;10615;42.702;23.314;2022-08-03T01:32:30;19.70;75.10
20911;DHT22;10615;42.702;23.314;2022-08-03T01:33:45;19.70;75.30
20911;DHT22;10615;42.702;23.314;2022-08-03T01:34:50;19.70;75.60
20911;DHT22;10615;42.702;23.314;2022-08-03T01:36:00;19.70;75.60
20911;DHT22;10615;42.702;23.314;2022-08-03T01:37:05;19.60;75.60
20911;DHT22;10615;42.702;23.314;2022-08-03T01:38:14;19.60;75.80
20911;DHT22;10615;42.702;23.314;2022-08-03T01:39:15;19.60;76.00
20911;DHT22;10615;42.702;23.314;2022-08-03T01:40:18;19.60;76.00
20911;DHT22;10615;42.702;23.314;2022-08-03T01:41:24;19.60;76.00
20911;DHT22;10615;42.702;23.314;2022-08-03T01:42:30;19.60;76.20
20911;DHT22;10615;42.702;23.314;2022-08-03T01:43:32;19.60;76.30
20911;DHT22;10615;42.702;23.314;2022-08-03T01:44:37;19.60;76.30
20911;DHT22;10615;42.702;23.314;2022-08-03T01:45:39;19.60;76.30
20911;DHT22;10615;42.702;23.314;2022-08-03T01:46:41;19.60;76.40
20911;DHT22;10615;42.702;23.314;2022-08-03T01:47:43;19.50;76.40
20911;DHT22;10615;42.702;23.314;2022-08-03T01:48:46;19.50;76.40
20911;DHT22;10615;42.702;23.314;2022-08-03T01:49:48;19.50;76.40
20911;DHT22;10615;42.702;23.314;2022-08-03T01:50:50;19.50;76.60
20911;DHT22;10615;42.702;23.314;2022-08-03T01:51:52;19.40;76.50
20911;DHT22;10615;42.702;23.314;2022-08-03T01:52:53;19.40;76.40
20911;DHT22;10615;42.702;23.314;2022-08-03T01:53:56;19.40;76.60
20911;DHT22;10615;42.702;23.314;2022-08-03T01:54:59;19.30;76.80
20911;DHT22;10615;42.702;23.314;2022-08-03T01:56:01;19.30;77.00
20911;DHT22;10615;42.702;23.314;2022-08-03T01:57:03;19.30;77.20
20911;DHT22;10615;42.702;23.314;2022-08-03T01:58:06;19.30;77.30
20911;DHT22;10615;42.702;23.314;2022-08-03T01:59:08;19.30;77.50
20911;DHT22;10615;42.702;23.314;2022-08-03T02:00:10;19.30;77.60
20911;DHT22;10615;42.702;23.314;2022-08-03T02:01:11;19.30;77.70
20911;DHT22;10615;42.702;23.314;2022-08-03T02:02:14;19.30;77.60
20911;DHT22;10615;42.702;23.314;2022-08-03T02:03:16;19.30;77.60
20911;DHT22;10615;42.702;23.314;2022-08-03T02:04:17;19.30;77.70
20911;DHT22;10615;42.702;23.314;2022-08-03T02:05:18;19.30;77.80
20911;DHT22;10615;42.702;23.314;2022-08-03T02:06:21;19.30;77.70
20911;DHT22;10615;42.702;23.314;2022-08-03T02:07:23;19.30;77.70
20911;DHT22;10615;42.702;23.314;2022-08-03T02:08:26;19.30;77.70
20911;DHT22;10615;42.702;23.314;2022-08-03T02:09:29;19.30;77.70
20911;DHT22;10615;42.702;23.314;2022-08-03T02:10:32;19.30;77.60
20911;DHT22;10615;42.702;23.314;2022-08-03T02:11:34;19.30;77.80
20911;DHT22;10615;42.702;23.314;2022-08-03T02:12:36;19.30;77.80
20911;DHT22;10615;42.702;23.314;2022-08-03T02:13:38;19.30;77.90
20911;DHT22;10615;42.702;23.314;2022-08-03T02:14:40;19.30;77.90
20911;DHT22;10615;42.702;23.314;2022-08-03T02:15:41;19.30;77.90
20911;DHT22;10615;42.702;23.314;2022-08-03T02:16:43;19.30;77.90
20911;DHT22;10615;42.702;23.314;2022-08-03T02:17:46;19.30;77.90
20911;DHT22;10615;42.702;23.314;2022-08-03T02:18:48;19.30;77.90
20911;DHT22;10615;42.702;23.314;2022-08-03T02:19:49;19.30;78.00
20911;DHT22;10615;42.702;23.314;2022-08-03T02:20:51;19.30;78.20
20911;DHT22;10615;42.702;23.314;2022-08-03T02:21:53;19.30;78.20
20911;DHT22;10615;42.702;23.314;2022-08-03T02:22:53;19.30;78.20
20911;DHT22;10615;42.702;23.314;2022-08-03T02:23:54;19.40;78.20
20911;DHT22;10615;42.702;23.314;2022-08-03T02:24:55;19.40;78.20
20911;DHT22;10615;42.702;23.314;2022-08-03T02:25:58;19.40;78.20
20911;DHT22;10615;42.702;23.314;2022-08-03T02:27:00;19.40;78.30
20911;DHT22;10615;42.702;23.314;2022-08-03T02:28:10;19.40;78.50
20911;DHT22;10615;42.702;23.314;2022-08-03T02:29:14;19.40;78.60
20911;DHT22;10615;42.702;23.314;2022-08-03T02:30:15;19.40;78.50
20911;DHT22;10615;42.702;23.314;2022-08-03T02:31:19;19.40;78.50
20911;DHT22;10615;42.702;23.314;2022-08-03T02:32:27;19.40;78.20
20911;DHT22;10615;42.702;23.314;2022-08-03T02:33:31;19.40;78.20
20911;DHT22;10615;42.702;23.314;2022-08-03T02:34:34;19.30;78.20
20911;DHT22;10615;42.702;23.314;2022-08-03T02:35:36;19.30;78.50
20911;DHT22;10615;42.702;23.314;2022-08-03T02:36:41;19.30;78.70
20911;DHT22;10615;42.702;23.314;2022-08-03T02:37:49;19.20;78.70
20911;DHT22;10615;42.702;23.314;2022-08-03T02:38:54;19.30;78.90
20911;DHT22;10615;42.702;23.314;2022-08-03T02:40:01;19.30;79.00
20911;DHT22;10615;42.702;23.314;2022-08-03T02:41:14;19.30;79.00
20911;DHT22;10615;42.702;23.314;2022-08-03T02:42:17;19.30;79.00
20911;DHT22;10615;42.702;23.314;2022-08-03T02:43:20;19.30;78.80
20911;DHT22;10615;42.702;23.314;2022-08-03T02:44:25;19.30;78.70
20911;DHT22;10615;42.702;23.314;2022-08-03T02:45:27;19.30;78.60
20911;DHT22;10615;42.702;23.314;2022-08-03T02:46:34;19.30;78.70
20911;DHT22;10615;42.702;23.314;2022-08-03T02:47:38;19.30;78.60
20911;DHT22;10615;42.702;23.314;2022-08-03T02:48:42;19.30;78.40
20911;DHT22;10615;42.702;23.314;2022-08-03T02:49:43;19.30;78.20
20911;DHT22;10615;42.702;23.314;2022-08-03T02:50:46;19.30;78.10
20911;DHT22;10615;42.702;23.314;2022-08-03T02:51:48;19.30;78.00
20911;DHT22;10615;42.702;23.314;2022-08-03T02:52:51;19.30;78.00
20911;DHT22;10615;42.702;23.314;2022-08-03T02:53:53;19.30;78.20
20911;DHT22;10615;42.702;23.314;2022-08-03T02:54:58;19.40;78.10
20911;DHT22;10615;42.702;23.314;2022-08-03T02:55:59;19.40;77.80
20911;DHT22;10615;42.702;23.314;2022-08-03T02:57:01;19.40;77.70
20911;DHT22;10615;42.702;23.314;2022-08-03T02:58:02;19.30;77.60
20911;DHT22;10615;42.702;23.314;2022-08-03T02:59:05;19.30;77.60
20911;DHT22;10615;42.702;23.314;2022-08-03T03:00:07;19.20;77.80
20911;DHT22;10615;42.702;23.314;2022-08-03T03:01:09;19.20;78.10
20911;DHT22;10615;42.702;23.314;2022-08-03T03:02:11;19.20;78.10
20911;DHT22;10615;42.702;23.314;2022-08-03T03:03:14;19.20;78.10
20911;DHT22;10615;42.702;23.314;2022-08-03T03:04:15;19.20;78.20
20911;DHT22;10615;42.702;23.314;2022-08-03T03:05:17;19.20;78.20
20911;DHT22;10615;42.702;23.314;2022-08-03T03:06:18;19.20;78.20
20911;DHT22;10615;42.702;23.314;2022-08-03T03:07:19;19.10;79.10
20911;DHT22;10615;42.702;23.314;2022-08-03T03:08:21;19.20;78.50
20911;DHT22;10615;42.702;23.314;2022-08-03T03:09:22;19.10;78.50
20911;DHT22;10615;42.702;23.314;2022-08-03T03:10:24;19.10;78.50
20911;DHT22;10615;42.702;23.314;2022-08-03T03:11:25;19.10;78.50
20911;DHT22;10615;42.702;23.314;2022-08-03T03:12:26;19.10;78.50
20911;DHT22;10615;42.702;23.314;2022-08-03T03:13:29;19.10;78.70
20911;DHT22;10615;42.702;23.314;2022-08-03T03:14:30;19.10;78.80
20911;DHT22;10615;42.702;23.314;2022-08-03T03:15:32;19.10;78.70
20911;DHT22;10615;42.702;23.314;2022-08-03T03:16:35;19.10;78.60
20911;DHT22;10615;42.702;23.314;2022-08-03T03:17:36;19.10;78.60
20911;DHT22;10615;42.702;23.314;2022-08-03T03:18:39;19.10;78.80
20911;DHT22;10615;42.702;23.314;2022-08-03T03:19:40;19.10;78.80
20911;DHT22;10615;42.702;23.314;2022-08-03T03:20:42;19.00;78.70
20911;DHT22;10615;42.702;23.314;2022-08-03T03:21:45;18.90;78.80
20911;DHT22;10615;42.702;23.314;2022-08-03T03:22:48;18.80;79.10
20911;DHT22;10615;42.702;23.314;2022-08-03T03:23:49;18.70;79.70
20911;DHT22;10615;42.702;23.314;2022-08-03T03:24:52;18.60;80.20
20911;DHT22;10615;42.702;23.314;2022-08-03T03:25:55;18.60;80.60
20911;DHT22;10615;42.702;23.314;2022-08-03T03:26:58;18.60;81.00
20911;DHT22;10615;42.702;23.314;2022-08-03T03:27:59;18.50;81.10
20911;DHT22;10615;42.702;23.314;2022-08-03T03:29:01;18.50;81.40
20911;DHT22;10615;42.702;23.314;2022-08-03T03:30:02;18.50;81.60
20911;DHT22;10615;42.702;23.314;2022-08-03T03:31:05;18.40;81.70
20911;DHT22;10615;42.702;23.314;2022-08-03T03:32:05;18.40;81.60
20911;DHT22;10615;42.702;23.314;2022-08-03T03:33:06;18.40;81.80
20911;DHT22;10615;42.702;23.314;2022-08-03T03:34:08;18.40;81.90
20911;DHT22;10615;42.702;23.314;2022-08-03T03:35:09;18.30;82.10
20911;DHT22;10615;42.702;23.314;2022-08-03T03:36:09;18.30;82.40
20911;DHT22;10615;42.702;23.314;2022-08-03T03:37:10;18.30;83.60
20911;DHT22;10615;42.702;23.314;2022-08-03T03:38:11;18.30;82.90
20911;DHT22;10615;42.702;23.314;2022-08-03T03:39:12;18.40;83.10
20911;DHT22;10615;42.702;23.314;2022-08-03T03:40:13;18.40;83.10
20911;DHT22;10615;42.702;23.314;2022-08-03T03:41:14;18.40;83.10
20911;DHT22;10615;42.702;23.314;2022-08-03T03:42:15;18.40;83.00
20911;DHT22;10615;42.702;23.314;2022-08-03T03:43:16;18.50;83.10
20911;DHT22;10615;42.702;23.314;2022-08-03T03:44:18;18.60;83.10
20911;DHT22;10615;42.702;23.314;2022-08-03T03:45:19;18.60;82.80
20911;DHT22;10615;42.702;23.314;2022-08-03T03:46:21;18.60;82.80
20911;DHT22;10615;42.702;23.314;2022-08-03T03:47:22;18.70;83.00
20911;DHT22;10615;42.702;23.314;2022-08-03T03:48:24;18.80;83.10
20911;DHT22;10615;42.702;23.314;2022-08-03T03:49:25;18.90;83.00
20911;DHT22;10615;42.702;23.314;2022-08-03T03:50:27;19.00;82.70
20911;DHT22;10615;42.702;23.314;2022-08-03T03:51:27;19.10;82.20
20911;DHT22;10615;42.702;23.314;2022-08-03T03:52:28;19.20;81.80
20911;DHT22;10615;42.702;23.314;2022-08-03T03:53:29;19.30;81.50
20911;DHT22;10615;42.702;23.314;2022-08-03T03:54:43;19.30;81.10
20911;DHT22;10615;42.702;23.314;2022-08-03T03:55:44;19.50;80.60
20911;DHT22;10615;42.702;23.314;2022-08-03T03:56:44;19.60;80.30
20911;DHT22;10615;42.702;23.314;2022-08-03T03:57:45;19.70;79.80
20911;DHT22;10615;42.702;23.314;2022-08-03T03:58:46;19.80;79.50
20911;DHT22;10615;42.702;23.314;2022-08-03T03:59:47;19.80;79.10
20911;DHT22;10615;42.702;23.314;2022-08-03T04:00:49;19.90;78.80
20911;DHT22;10615;42.702;23.314;2022-08-03T04:01:49;20.00;78.40
20911;DHT22;10615;42.702;23.314;2022-08-03T04:02:51;20.10;78.20
20911;DHT22;10615;42.702;23.314;2022-08-03T04:04:10;20.20;77.80
20911;DHT22;10615;42.702;23.314;2022-08-03T04:05:30;20.30;77.30
20911;DHT22;10615;42.702;23.314;2022-08-03T04:06:49;20.50;76.90
20911;DHT22;10615;42.702;23.314;2022-08-03T04:08:15;20.60;76.30
20911;DHT22;10615;42.702;23.314;2022-08-03T04:09:37;20.80;75.80
20911;DHT22;10615;42.702;23.314;2022-08-03T04:12:10;21.10;74.90
20911;DHT22;10615;42.702;23.314;2022-08-03T04:13:13;21.20;74.50
20911;DHT22;10615;42.702;23.314;2022-08-03T04:14:23;21.30;74.20
20911;DHT22;10615;42.702;23.314;2022-08-03T04:15:27;21.40;73.80
20911;DHT22;10615;42.702;23.314;2022-08-03T04:16:31;21.60;73.30
20911;DHT22;10615;42.702;23.314;2022-08-03T04:17:33;21.60;72.70
20911;DHT22;10615;42.702;23.314;2022-08-03T04:18:35;21.70;72.30
20911;DHT22;10615;42.702;23.314;2022-08-03T04:19:41;21.90;72.00
20911;DHT22;10615;42.702;23.314;2022-08-03T04:20:45;22.00;71.60
20911;DHT22;10615;42.702;23.314;2022-08-03T04:21:50;22.20;71.10
20911;DHT22;10615;42.702;23.314;2022-08-03T04:22:52;22.30;70.70
20911;DHT22;10615;42.702;23.314;2022-08-03T04:23:58;22.50;70.10
20911;DHT22;10615;42.702;23.314;2022-08-03T04:25:02;22.60;69.40
20911;DHT22;10615;42.702;23.314;2022-08-03T04:26:07;22.70;68.90
20911;DHT22;10615;42.702;23.314;2022-08-03T04:27:12;22.90;68.40
20911;DHT22;10615;42.702;23.314;2022-08-03T04:28:14;23.00;67.90
20911;DHT22;10615;42.702;23.314;2022-08-03T04:29:17;23.10;67.60
20911;DHT22;10615;42.702;23.314;2022-08-03T04:30:18;23.20;67.10
20911;DHT22;10615;42.702;23.314;2022-08-03T04:31:21;23.30;66.60
20911;DHT22;10615;42.702;23.314;2022-08-03T04:32:24;23.40;66.30
20911;DHT22;10615;42.702;23.314;2022-08-03T04:33:30;23.60;65.90
20911;DHT22;10615;42.702;23.314;2022-08-03T04:34:31;23.70;65.30
20911;DHT22;10615;42.702;23.314;2022-08-03T04:35:33;23.80;64.80
20911;DHT22;10615;42.702;23.314;2022-08-03T04:36:39;23.80;64.20
20911;DHT22;10615;42.702;23.314;2022-08-03T04:37:51;23.80;63.90
20911;DHT22;10615;42.702;23.314;2022-08-03T04:38:53;24.00;64.60
20911;DHT22;10615;42.702;23.314;2022-08-03T04:39:56;24.00;64.20
20911;DHT22;10615;42.702;23.314;2022-08-03T04:40:59;24.10;63.10
20911;DHT22;10615;42.702;23.314;2022-08-03T04:42:06;24.10;62.80
20911;DHT22;10615;42.702;23.314;2022-08-03T04:43:09;24.20;62.40
20911;DHT22;10615;42.702;23.314;2022-08-03T04:44:12;24.30;62.40
20911;DHT22;10615;42.702;23.314;2022-08-03T04:45:15;24.40;62.10
20911;DHT22;10615;42.702;23.314;2022-08-03T04:46:18;24.50;61.90
20911;DHT22;10615;42.702;23.314;2022-08-03T04:47:19;24.60;61.50
20911;DHT22;10615;42.702;23.314;2022-08-03T04:48:20;24.70;61.30
20911;DHT22;10615;42.702;23.314;2022-08-03T04:49:22;24.80;61.00
20911;DHT22;10615;42.702;23.314;2022-08-03T04:50:24;24.80;60.60
20911;DHT22;10615;42.702;23.314;2022-08-03T04:51:25;24.80;60.40
20911;DHT22;10615;42.702;23.314;2022-08-03T04:52:25;24.90;60.40
20911;DHT22;10615;42.702;23.314;2022-08-03T04:53:26;24.90;60.10
20911;DHT22;10615;42.702;23.314;2022-08-03T04:54:27;24.90;59.80
20911;DHT22;10615;42.702;23.314;2022-08-03T04:55:29;25.00;59.70
20911;DHT22;10615;42.702;23.314;2022-08-03T04:56:30;25.10;59.60
20911;DHT22;10615;42.702;23.314;2022-08-03T04:57:33;25.10;59.40
20911;DHT22;10615;42.702;23.314;2022-08-03T04:58:34;25.20;59.50
20911;DHT22;10615;42.702;23.314;2022-08-03T04:59:35;25.30;59.20
20911;DHT22;10615;42.702;23.314;2022-08-03T05:00:35;25.40;58.90
20911;DHT22;10615;42.702;23.314;2022-08-03T05:01:38;25.40;58.50
20911;DHT22;10615;42.702;23.314;2022-08-03T05:02:38;25.50;58.30
20911;DHT22;10615;42.702;23.314;2022-08-03T05:03:39;25.50;58.20
20911;DHT22;10615;42.702;23.314;2022-08-03T05:04:40;25.60;58.00
20911;DHT22;10615;42.702;23.314;2022-08-03T05:05:45;25.70;58.20
20911;DHT22;10615;42.702;23.314;2022-08-03T05:06:46;25.90;58.00
20911;DHT22;10615;42.702;23.314;2022-08-03T05:07:47;25.90;57.50
20911;DHT22;10615;42.702;23.314;2022-08-03T05:08:48;25.90;57.40
20911;DHT22;10615;42.702;23.314;2022-08-03T05:09:48;26.10;57.40
20911;DHT22;10615;42.702;23.314;2022-08-03T05:10:49;26.10;57.10
20911;DHT22;10615;42.702;23.314;2022-08-03T05:11:50;26.20;57.00
20911;DHT22;10615;42.702;23.314;2022-08-03T05:12:51;26.30;56.90
20911;DHT22;10615;42.702;23.314;2022-08-03T05:13:51;26.40;56.80
20911;DHT22;10615;42.702;23.314;2022-08-03T05:14:52;26.60;56.70
20911;DHT22;10615;42.702;23.314;2022-08-03T05:15:53;26.70;56.20
20911;DHT22;10615;42.702;23.314;2022-08-03T05:16:53;26.80;55.60
20911;DHT22;10615;42.702;23.314;2022-08-03T05:17:54;26.90;55.30
20911;DHT22;10615;42.702;23.314;2022-08-03T05:18:55;27.10;55.00
20911;DHT22;10615;42.702;23.314;2022-08-03T05:19:55;27.10;54.70
20911;DHT22;10615;42.702;23.314;2022-08-03T05:20:56;27.10;54.40
20911;DHT22;10615;42.702;23.314;2022-08-03T05:21:57;27.20;54.40
20911;DHT22;10615;42.702;23.314;2022-08-03T05:22:58;27.20;54.40
20911;DHT22;10615;42.702;23.314;2022-08-03T05:24:00;27.30;54.30
20911;DHT22;10615;42.702;23.314;2022-08-03T05:25:02;27.30;54.20
20911;DHT22;10615;42.702;23.314;2022-08-03T05:26:02;27.40;54.10
20911;DHT22;10615;42.702;23.314;2022-08-03T05:27:03;27.30;53.70
20911;DHT22;10615;42.702;23.314;2022-08-03T05:28:04;27.30;53.70
20911;DHT22;10615;42.702;23.314;2022-08-03T05:29:05;27.40;53.90
20911;DHT22;10615;42.702;23.314;2022-08-03T05:30:06;27.50;54.00
20911;DHT22;10615;42.702;23.314;2022-08-03T05:31:06;27.60;53.90
20911;DHT22;10615;42.702;23.314;2022-08-03T05:32:07;27.80;53.50
20911;DHT22;10615;42.702;23.314;2022-08-03T05:33:08;27.80;53.20
20911;DHT22;10615;42.702;23.314;2022-08-03T05:34:09;27.90;53.00
20911;DHT22;10615;42.702;23.314;2022-08-03T05:35:09;28.00;52.60
20911;DHT22;10615;42.702;23.314;2022-08-03T05:36:10;28.20;52.50
20911;DHT22;10615;42.702;23.314;2022-08-03T05:37:11;28.40;52.50
20911;DHT22;10615;42.702;23.314;2022-08-03T05:38:12;28.60;52.30
20911;DHT22;10615;42.702;23.314;2022-08-03T05:39:13;28.80;51.90
20911;DHT22;10615;42.702;23.314;2022-08-03T05:40:14;29.10;51.70
20911;DHT22;10615;42.702;23.314;2022-08-03T05:41:14;29.30;51.10
20911;DHT22;10615;42.702;23.314;2022-08-03T05:42:16;29.50;50.50
20911;DHT22;10615;42.702;23.314;2022-08-03T05:43:17;29.50;49.90
20911;DHT22;10615;42.702;23.314;2022-08-03T05:44:17;29.60;49.70
20911;DHT22;10615;42.702;23.314;2022-08-03T05:45:18;29.70;49.40
20911;DHT22;10615;42.702;23.314;2022-08-03T05:46:19;29.80;49.10
20911;DHT22;10615;42.702;23.314;2022-08-03T05:47:20;29.90;48.60
20911;DHT22;10615;42.702;23.314;2022-08-03T05:48:21;29.80;48.40
20911;DHT22;10615;42.702;23.314;2022-08-03T05:49:22;29.90;48.40
20911;DHT22;10615;42.702;23.314;2022-08-03T05:50:23;29.90;48.10
20911;DHT22;10615;42.702;23.314;2022-08-03T05:51:23;30.00;47.90
20911;DHT22;10615;42.702;23.314;2022-08-03T05:52:24;30.30;47.70
20911;DHT22;10615;42.702;23.314;2022-08-03T05:53:25;30.30;47.20
20911;DHT22;10615;42.702;23.314;2022-08-03T05:54:26;30.30;47.00
20911;DHT22;10615;42.702;23.314;2022-08-03T05:55:26;30.40;47.10
20911;DHT22;10615;42.702;23.314;2022-08-03T05:56:27;30.70;46.80
20911;DHT22;10615;42.702;23.314;2022-08-03T05:57:28;30.90;46.50
20911;DHT22;10615;42.702;23.314;2022-08-03T05:58:29;31.20;46.40
20911;DHT22;10615;42.702;23.314;2022-08-03T05:59:30;31.50;45.80
20911;DHT22;10615;42.702;23.314;2022-08-03T06:00:31;31.80;45.30
20911;DHT22;10615;42.702;23.314;2022-08-03T06:01:31;32.00;44.50
20911;DHT22;10615;42.702;23.314;2022-08-03T06:02:32;32.40;43.40
20911;DHT22;10615;42.702;23.314;2022-08-03T06:03:33;32.50;43.90
20911;DHT22;10615;42.702;23.314;2022-08-03T06:04:33;32.80;43.40
20911;DHT22;10615;42.702;23.314;2022-08-03T06:05:34;33.20;42.80
20911;DHT22;10615;42.702;23.314;2022-08-03T06:06:36;33.60;42.00
20911;DHT22;10615;42.702;23.314;2022-08-03T06:07:36;33.90;41.40
20911;DHT22;10615;42.702;23.314;2022-08-03T06:08:38;34.40;40.80
20911;DHT22;10615;42.702;23.314;2022-08-03T06:09:38;35.10;40.10
20911;DHT22;10615;42.702;23.314;2022-08-03T06:10:40;35.80;38.90
20911;DHT22;10615;42.702;23.314;2022-08-03T06:11:41;36.90;37.90
20911;DHT22;10615;42.702;23.314;2022-08-03T06:12:42;37.60;36.30
20911;DHT22;10615;42.702;23.314;2022-08-03T06:13:44;38.40;35.50
20911;DHT22;10615;42.702;23.314;2022-08-03T06:14:45;39.00;34.20
20911;DHT22;10615;42.702;23.314;2022-08-03T06:15:46;39.50;33.20
20911;DHT22;10615;42.702;23.314;2022-08-03T06:16:46;40.00;32.50
20911;DHT22;10615;42.702;23.314;2022-08-03T06:18:49;40.90;30.40
20911;DHT22;10615;42.702;23.314;2022-08-03T06:19:51;41.40;30.60
20911;DHT22;10615;42.702;23.314;2022-08-03T06:20:53;41.40;30.00
20911;DHT22;10615;42.702;23.314;2022-08-03T06:21:54;42.10;30.10
20911;DHT22;10615;42.702;23.314;2022-08-03T06:22:54;42.40;29.50
20911;DHT22;10615;42.702;23.314;2022-08-03T06:23:55;42.90;29.40
20911;DHT22;10615;42.702;23.314;2022-08-03T06:24:56;43.20;29.00
20911;DHT22;10615;42.702;23.314;2022-08-03T06:25:58;43.70;28.80
20911;DHT22;10615;42.702;23.314;2022-08-03T06:26:58;43.90;28.10
20911;DHT22;10615;42.702;23.314;2022-08-03T06:27:59;43.90;27.60
20911;DHT22;10615;42.702;23.314;2022-08-03T06:29:00;44.10;27.50
20911;DHT22;10615;42.702;23.314;2022-08-03T06:30:01;44.60;27.30
20911;DHT22;10615;42.702;23.314;2022-08-03T06:31:02;45.20;27.00
20911;DHT22;10615;42.702;23.314;2022-08-03T06:32:03;45.60;26.50
20911;DHT22;10615;42.702;23.314;2022-08-03T06:33:03;45.70;26.00
20911;DHT22;10615;42.702;23.314;2022-08-03T06:34:04;45.60;25.70
20911;DHT22;10615;42.702;23.314;2022-08-03T06:35:08;45.70;25.60
20911;DHT22;10615;42.702;23.314;2022-08-03T06:36:09;45.80;25.50
20911;DHT22;10615;42.702;23.314;2022-08-03T06:37:10;45.80;25.40
20911;DHT22;10615;42.702;23.314;2022-08-03T06:38:11;45.80;25.30
20911;DHT22;10615;42.702;23.314;2022-08-03T06:39:12;46.00;25.30
20911;DHT22;10615;42.702;23.314;2022-08-03T06:40:15;46.40;25.20
20911;DHT22;10615;42.702;23.314;2022-08-03T06:41:16;46.70;24.90
20911;DHT22;10615;42.702;23.314;2022-08-03T06:42:17;47.20;24.90
20911;DHT22;10615;42.702;23.314;2022-08-03T06:43:17;47.60;24.40
20911;DHT22;10615;42.702;23.314;2022-08-03T06:44:18;48.00;24.10